sensor_id;sensor_type;location;lat;lon;timestamp;P1;durP1;ratioP1;P2;durP2;ratioP2
8663;SDS011;4369;47.842;13.096;2022-12-18T00:01:35;24.67;;;13.53;;
8663;SDS011;4369;47.842;13.096;2022-12-18T00:04:04;23.73;;;12.97;;
8663;SDS011;4369;47.842;13.096;2022-12-18T00:06:33;23.40;;;12.60;;
8663;SDS011;4369;47.842;13.096;2022-12-18T00:09:01;29.67;;;14.40;;
8663;SDS011;4369;47.842;13.096;2022-12-18T00:11:29;24.53;;;14.07;;
8663;SDS011;4369;47.842;13.096;2022-12-18T00:13:57;22.90;;;13.07;;
8663;SDS011;4369;47.842;13.096;2022-12-18T00:16:27;23.97;;;13.50;;
8663;SDS011;4369;47.842;13.096;2022-12-18T00:18:58;21.40;;;11.43;;
8663;SDS011;4369;47.842;13.096;2022-12-18T00:21:26;20.37;;;11.40;;
8663;SDS011;4369;47.842;13.096;2022-12-18T00:23:53;19.53;;;11.13;;
8663;SDS011;4369;47.842;13.096;2022-12-18T00:26:21;20.17;;;11.13;;
8663;SDS011;4369;47.842;13.096;2022-12-18T00:28:49;19.97;;;11.57;;
8663;SDS011;4369;47.842;13.096;2022-12-18T00:31:18;19.07;;;10.73;;
8663;SDS011;4369;47.842;13.096;2022-12-18T00:33:48;18.90;;;10.80;;
8663;SDS011;4369;47.842;13.096;2022-12-18T00:36:16;19.33;;;11.03;;
8663;SDS011;4369;47.842;13.096;2022-12-18T00:38:45;16.87;;;9.73;;
8663;SDS011;4369;47.842;13.096;2022-12-18T00:41:12;13.93;;;9.53;;
8663;SDS011;4369;47.842;13.096;2022-12-18T00:44:01;15.43;;;9.30;;
8663;SDS011;4369;47.842;13.096;2022-12-18T00:46:28;19.03;;;9.80;;
8663;SDS011;4369;47.842;13.096;2022-12-18T00:48:57;22.20;;;11.67;;
8663;SDS011;4369;47.842;13.096;2022-12-18T00:51:24;16.13;;;10.03;;
8663;SDS011;4369;47.842;13.096;2022-12-18T00:53:52;14.63;;;8.93;;
8663;SDS011;4369;47.842;13.096;2022-12-18T00:56:19;13.77;;;8.23;;
8663;SDS011;4369;47.842;13.096;2022-12-18T00:58:47;13.67;;;8.10;;
8663;SDS011;4369;47.842;13.096;2022-12-18T01:01:14;16.47;;;9.80;;
8663;SDS011;4369;47.842;13.096;2022-12-18T01:03:41;18.07;;;9.67;;
8663;SDS011;4369;47.842;13.096;2022-12-18T01:06:13;13.33;;;8.30;;
8663;SDS011;4369;47.842;13.096;2022-12-18T01:08:41;14.00;;;8.53;;
8663;SDS011;4369;47.842;13.096;2022-12-18T01:11:08;13.43;;;8.33;;
8663;SDS011;4369;47.842;13.096;2022-12-18T01:13:36;14.23;;;8.67;;
8663;SDS011;4369;47.842;13.096;2022-12-18T01:16:03;12.67;;;8.27;;
8663;SDS011;4369;47.842;13.096;2022-12-18T01:18:30;15.10;;;8.30;;
8663;SDS011;4369;47.842;13.096;2022-12-18T01:20:57;13.00;;;8.90;;
8663;SDS011;4369;47.842;13.096;2022-12-18T01:23:26;14.07;;;9.20;;
8663;SDS011;4369;47.842;13.096;2022-12-18T01:25:53;16.00;;;8.57;;
8663;SDS011;4369;47.842;13.096;2022-12-18T01:28:20;14.73;;;9.30;;
8663;SDS011;4369;47.842;13.096;2022-12-18T01:30:47;18.30;;;9.53;;
8663;SDS011;4369;47.842;13.096;2022-12-18T01:33:14;17.10;;;9.63;;
8663;SDS011;4369;47.842;13.096;2022-12-18T01:35:41;16.47;;;9.60;;
8663;SDS011;4369;47.842;13.096;2022-12-18T01:38:08;12.63;;;8.63;;
8663;SDS011;4369;47.842;13.096;2022-12-18T01:40:36;17.40;;;8.83;;
8663;SDS011;4369;47.842;13.096;2022-12-18T01:43:03;13.53;;;7.87;;
8663;SDS011;4369;47.842;13.096;2022-12-18T01:45:30;14.03;;;8.70;;
8663;SDS011;4369;47.842;13.096;2022-12-18T01:47:59;14.97;;;8.10;;
8663;SDS011;4369;47.842;13.096;2022-12-18T01:50:29;13.33;;;8.00;;
8663;SDS011;4369;47.842;13.096;2022-12-18T01:52:59;12.43;;;8.03;;
8663;SDS011;4369;47.842;13.096;2022-12-18T01:55:31;15.23;;;8.20;;
8663;SDS011;4369;47.842;13.096;2022-12-18T01:58:03;16.20;;;9.57;;
8663;SDS011;4369;47.842;13.096;2022-12-18T02:00:30;15.90;;;9.03;;
8663;SDS011;4369;47.842;13.096;2022-12-18T02:02:58;12.20;;;7.93;;
8663;SDS011;4369;47.842;13.096;2022-12-18T02:05:27;15.00;;;9.27;;
8663;SDS011;4369;47.842;13.096;2022-12-18T02:08:05;16.37;;;8.70;;
8663;SDS011;4369;47.842;13.096;2022-12-18T02:10:39;15.20;;;8.90;;
8663;SDS011;4369;47.842;13.096;2022-12-18T02:13:13;18.17;;;8.53;;
8663;SDS011;4369;47.842;13.096;2022-12-18T02:15:44;18.27;;;9.73;;
8663;SDS011;4369;47.842;13.096;2022-12-18T02:18:19;13.67;;;8.63;;
8663;SDS011;4369;47.842;13.096;2022-12-18T02:20:51;16.70;;;8.97;;
8663;SDS011;4369;47.842;13.096;2022-12-18T02:23:25;16.10;;;9.20;;
8663;SDS011;4369;47.842;13.096;2022-12-18T02:26:06;14.60;;;9.03;;
8663;SDS011;4369;47.842;13.096;2022-12-18T02:28:40;14.53;;;8.57;;
8663;SDS011;4369;47.842;13.096;2022-12-18T02:31:11;13.93;;;8.00;;
8663;SDS011;4369;47.842;13.096;2022-12-18T02:33:42;14.70;;;8.93;;
8663;SDS011;4369;47.842;13.096;2022-12-18T02:36:10;17.10;;;9.77;;
8663;SDS011;4369;47.842;13.096;2022-12-18T02:38:40;14.47;;;8.77;;
8663;SDS011;4369;47.842;13.096;2022-12-18T02:41:10;17.47;;;9.80;;
8663;SDS011;4369;47.842;13.096;2022-12-18T02:43:39;16.17;;;10.13;;
8663;SDS011;4369;47.842;13.096;2022-12-18T02:46:22;18.03;;;9.97;;
8663;SDS011;4369;47.842;13.096;2022-12-18T02:48:59;18.03;;;10.57;;
8663;SDS011;4369;47.842;13.096;2022-12-18T02:51:37;18.50;;;10.37;;
8663;SDS011;4369;47.842;13.096;2022-12-18T02:54:14;16.30;;;9.73;;
8663;SDS011;4369;47.842;13.096;2022-12-18T02:56:50;18.20;;;10.00;;
8663;SDS011;4369;47.842;13.096;2022-12-18T02:59:21;16.43;;;9.23;;
8663;SDS011;4369;47.842;13.096;2022-12-18T03:01:55;17.37;;;9.40;;
8663;SDS011;4369;47.842;13.096;2022-12-18T03:04:26;17.70;;;9.63;;
8663;SDS011;4369;47.842;13.096;2022-12-18T03:06:56;15.53;;;9.43;;
8663;SDS011;4369;47.842;13.096;2022-12-18T03:09:32;16.97;;;9.80;;
8663;SDS011;4369;47.842;13.096;2022-12-18T03:12:05;19.93;;;10.47;;
8663;SDS011;4369;47.842;13.096;2022-12-18T03:14:53;16.83;;;9.33;;
8663;SDS011;4369;47.842;13.096;2022-12-18T03:17:25;21.43;;;10.17;;
8663;SDS011;4369;47.842;13.096;2022-12-18T03:19:54;17.43;;;9.83;;
8663;SDS011;4369;47.842;13.096;2022-12-18T03:22:24;17.50;;;10.17;;
8663;SDS011;4369;47.842;13.096;2022-12-18T03:24:55;16.93;;;9.33;;
8663;SDS011;4369;47.842;13.096;2022-12-18T03:27:25;17.23;;;9.50;;
8663;SDS011;4369;47.842;13.096;2022-12-18T03:29:55;17.53;;;10.00;;
8663;SDS011;4369;47.842;13.096;2022-12-18T03:32:33;21.57;;;11.07;;
8663;SDS011;4369;47.842;13.096;2022-12-18T03:35:05;21.90;;;11.17;;
8663;SDS011;4369;47.842;13.096;2022-12-18T03:37:34;20.73;;;11.20;;
8663;SDS011;4369;47.842;13.096;2022-12-18T03:40:01;17.20;;;10.33;;
8663;SDS011;4369;47.842;13.096;2022-12-18T03:42:31;21.50;;;11.27;;
8663;SDS011;4369;47.842;13.096;2022-12-18T03:45:06;19.20;;;10.77;;
8663;SDS011;4369;47.842;13.096;2022-12-18T03:47:38;18.20;;;10.57;;
8663;SDS011;4369;47.842;13.096;2022-12-18T03:50:11;20.80;;;10.87;;
8663;SDS011;4369;47.842;13.096;2022-12-18T03:52:42;16.83;;;10.73;;
8663;SDS011;4369;47.842;13.096;2022-12-18T03:55:14;17.60;;;10.10;;
8663;SDS011;4369;47.842;13.096;2022-12-18T03:57:42;20.77;;;11.90;;
8663;SDS011;4369;47.842;13.096;2022-12-18T04:00:12;18.37;;;10.60;;
8663;SDS011;4369;47.842;13.096;2022-12-18T04:02:42;19.33;;;10.83;;
8663;SDS011;4369;47.842;13.096;2022-12-18T04:05:12;18.17;;;11.00;;
8663;SDS011;4369;47.842;13.096;2022-12-18T04:07:40;17.93;;;10.70;;
8663;SDS011;4369;47.842;13.096;2022-12-18T04:10:08;19.60;;;10.37;;
8663;SDS011;4369;47.842;13.096;2022-12-18T04:12:36;21.30;;;11.43;;
8663;SDS011;4369;47.842;13.096;2022-12-18T04:15:06;20.47;;;10.80;;
8663;SDS011;4369;47.842;13.096;2022-12-18T04:17:33;20.83;;;11.10;;
8663;SDS011;4369;47.842;13.096;2022-12-18T04:20:01;21.33;;;10.73;;
8663;SDS011;4369;47.842;13.096;2022-12-18T04:22:28;20.37;;;11.53;;
8663;SDS011;4369;47.842;13.096;2022-12-18T04:24:54;21.57;;;11.87;;
8663;SDS011;4369;47.842;13.096;2022-12-18T04:27:21;19.00;;;11.80;;
8663;SDS011;4369;47.842;13.096;2022-12-18T04:29:48;20.97;;;11.30;;
8663;SDS011;4369;47.842;13.096;2022-12-18T04:32:16;19.63;;;11.27;;
8663;SDS011;4369;47.842;13.096;2022-12-18T04:34:43;21.27;;;11.50;;
8663;SDS011;4369;47.842;13.096;2022-12-18T04:37:10;25.37;;;13.17;;
8663;SDS011;4369;47.842;13.096;2022-12-18T04:39:37;21.50;;;12.13;;
8663;SDS011;4369;47.842;13.096;2022-12-18T04:42:04;23.27;;;12.63;;
8663;SDS011;4369;47.842;13.096;2022-12-18T04:44:31;21.97;;;12.10;;
8663;SDS011;4369;47.842;13.096;2022-12-18T04:46:57;21.80;;;12.00;;
8663;SDS011;4369;47.842;13.096;2022-12-18T04:49:25;22.00;;;12.03;;
8663;SDS011;4369;47.842;13.096;2022-12-18T04:51:52;21.20;;;11.67;;
8663;SDS011;4369;47.842;13.096;2022-12-18T04:54:19;18.40;;;11.20;;
8663;SDS011;4369;47.842;13.096;2022-12-18T04:56:46;17.30;;;10.70;;
8663;SDS011;4369;47.842;13.096;2022-12-18T04:59:13;18.47;;;9.90;;
8663;SDS011;4369;47.842;13.096;2022-12-18T05:01:40;18.30;;;9.70;;
8663;SDS011;4369;47.842;13.096;2022-12-18T05:04:07;14.97;;;9.00;;
8663;SDS011;4369;47.842;13.096;2022-12-18T05:06:35;19.63;;;9.83;;
8663;SDS011;4369;47.842;13.096;2022-12-18T05:09:02;16.73;;;9.47;;
8663;SDS011;4369;47.842;13.096;2022-12-18T05:11:29;17.37;;;9.63;;
8663;SDS011;4369;47.842;13.096;2022-12-18T05:13:56;14.97;;;8.80;;
8663;SDS011;4369;47.842;13.096;2022-12-18T05:16:23;17.77;;;9.80;;
8663;SDS011;4369;47.842;13.096;2022-12-18T05:18:50;16.80;;;9.43;;
8663;SDS011;4369;47.842;13.096;2022-12-18T05:21:17;18.13;;;10.13;;
8663;SDS011;4369;47.842;13.096;2022-12-18T05:23:45;15.67;;;9.40;;
8663;SDS011;4369;47.842;13.096;2022-12-18T05:26:14;18.40;;;9.40;;
8663;SDS011;4369;47.842;13.096;2022-12-18T05:28:42;13.90;;;9.37;;
8663;SDS011;4369;47.842;13.096;2022-12-18T05:31:09;14.90;;;8.33;;
8663;SDS011;4369;47.842;13.096;2022-12-18T05:33:36;17.60;;;9.63;;
8663;SDS011;4369;47.842;13.096;2022-12-18T05:36:04;13.80;;;8.70;;
8663;SDS011;4369;47.842;13.096;2022-12-18T05:38:33;13.40;;;8.70;;
8663;SDS011;4369;47.842;13.096;2022-12-18T05:41:03;17.53;;;8.87;;
8663;SDS011;4369;47.842;13.096;2022-12-18T05:43:30;19.27;;;9.67;;
8663;SDS011;4369;47.842;13.096;2022-12-18T05:45:57;17.90;;;9.30;;
8663;SDS011;4369;47.842;13.096;2022-12-18T05:48:24;121.63;;;46.80;;
8663;SDS011;4369;47.842;13.096;2022-12-18T05:50:51;423.07;;;167.20;;
8663;SDS011;4369;47.842;13.096;2022-12-18T05:53:18;163.60;;;64.43;;
8663;SDS011;4369;47.842;13.096;2022-12-18T05:55:46;107.87;;;49.50;;
8663;SDS011;4369;47.842;13.096;2022-12-18T05:58:15;124.90;;;57.30;;
8663;SDS011;4369;47.842;13.096;2022-12-18T06:00:43;165.80;;;69.10;;
8663;SDS011;4369;47.842;13.096;2022-12-18T06:03:11;179.83;;;78.37;;
8663;SDS011;4369;47.842;13.096;2022-12-18T06:05:40;129.60;;;57.03;;
8663;SDS011;4369;47.842;13.096;2022-12-18T06:08:09;54.03;;;32.57;;
8663;SDS011;4369;47.842;13.096;2022-12-18T06:10:36;25.37;;;15.60;;
8663;SDS011;4369;47.842;13.096;2022-12-18T06:13:03;15.40;;;10.37;;
8663;SDS011;4369;47.842;13.096;2022-12-18T06:15:32;11.50;;;6.90;;
8663;SDS011;4369;47.842;13.096;2022-12-18T06:18:02;13.53;;;7.60;;
8663;SDS011;4369;47.842;13.096;2022-12-18T06:20:30;11.90;;;7.33;;
8663;SDS011;4369;47.842;13.096;2022-12-18T06:22:57;12.37;;;7.77;;
8663;SDS011;4369;47.842;13.096;2022-12-18T06:25:24;13.17;;;8.63;;
8663;SDS011;4369;47.842;13.096;2022-12-18T06:27:51;15.13;;;8.53;;
8663;SDS011;4369;47.842;13.096;2022-12-18T06:30:18;12.90;;;8.37;;
8663;SDS011;4369;47.842;13.096;2022-12-18T06:32:46;14.97;;;8.17;;
8663;SDS011;4369;47.842;13.096;2022-12-18T06:35:14;17.07;;;9.40;;
8663;SDS011;4369;47.842;13.096;2022-12-18T06:37:41;19.63;;;10.43;;
8663;SDS011;4369;47.842;13.096;2022-12-18T06:40:08;15.10;;;9.43;;
8663;SDS011;4369;47.842;13.096;2022-12-18T06:42:35;15.03;;;8.93;;
8663;SDS011;4369;47.842;13.096;2022-12-18T06:45:02;14.53;;;9.23;;
8663;SDS011;4369;47.842;13.096;2022-12-18T06:47:29;19.97;;;9.70;;
8663;SDS011;4369;47.842;13.096;2022-12-18T06:49:57;18.30;;;9.80;;
8663;SDS011;4369;47.842;13.096;2022-12-18T06:52:24;14.83;;;9.43;;
8663;SDS011;4369;47.842;13.096;2022-12-18T06:54:51;19.53;;;10.53;;
8663;SDS011;4369;47.842;13.096;2022-12-18T06:57:18;20.30;;;12.53;;
8663;SDS011;4369;47.842;13.096;2022-12-18T06:59:45;22.33;;;14.17;;
8663;SDS011;4369;47.842;13.096;2022-12-18T07:02:12;24.10;;;14.80;;
8663;SDS011;4369;47.842;13.096;2022-12-18T07:04:39;22.17;;;13.43;;
8663;SDS011;4369;47.842;13.096;2022-12-18T07:07:07;22.77;;;13.47;;
8663;SDS011;4369;47.842;13.096;2022-12-18T07:09:34;20.03;;;12.90;;
8663;SDS011;4369;47.842;13.096;2022-12-18T07:12:01;20.97;;;13.17;;
8663;SDS011;4369;47.842;13.096;2022-12-18T07:14:29;19.07;;;11.80;;
8663;SDS011;4369;47.842;13.096;2022-12-18T07:16:56;19.17;;;11.50;;
8663;SDS011;4369;47.842;13.096;2022-12-18T07:19:23;23.10;;;13.37;;
8663;SDS011;4369;47.842;13.096;2022-12-18T07:21:50;19.20;;;13.10;;
8663;SDS011;4369;47.842;13.096;2022-12-18T07:24:19;16.03;;;10.47;;
8663;SDS011;4369;47.842;13.096;2022-12-18T07:26:45;19.07;;;11.50;;
8663;SDS011;4369;47.842;13.096;2022-12-18T07:29:13;19.67;;;11.87;;
8663;SDS011;4369;47.842;13.096;2022-12-18T07:31:39;20.07;;;12.40;;
8663;SDS011;4369;47.842;13.096;2022-12-18T07:34:09;20.03;;;12.37;;
8663;SDS011;4369;47.842;13.096;2022-12-18T07:36:36;20.97;;;12.13;;
8663;SDS011;4369;47.842;13.096;2022-12-18T07:39:03;29.07;;;15.20;;
8663;SDS011;4369;47.842;13.096;2022-12-18T07:41:31;36.33;;;17.47;;
8663;SDS011;4369;47.842;13.096;2022-12-18T07:43:58;29.53;;;17.37;;
8663;SDS011;4369;47.842;13.096;2022-12-18T07:46:25;35.40;;;18.97;;
8663;SDS011;4369;47.842;13.096;2022-12-18T07:48:51;36.57;;;19.47;;
8663;SDS011;4369;47.842;13.096;2022-12-18T07:51:18;41.30;;;20.90;;
8663;SDS011;4369;47.842;13.096;2022-12-18T07:53:45;38.70;;;20.03;;
8663;SDS011;4369;47.842;13.096;2022-12-18T07:56:12;36.17;;;20.60;;
8663;SDS011;4369;47.842;13.096;2022-12-18T07:58:41;40.13;;;24.60;;
8663;SDS011;4369;47.842;13.096;2022-12-18T08:01:09;42.23;;;27.77;;
8663;SDS011;4369;47.842;13.096;2022-12-18T08:03:38;45.03;;;29.57;;
8663;SDS011;4369;47.842;13.096;2022-12-18T08:06:06;41.77;;;23.73;;
8663;SDS011;4369;47.842;13.096;2022-12-18T08:08:34;35.23;;;21.03;;
8663;SDS011;4369;47.842;13.096;2022-12-18T08:11:02;30.80;;;21.17;;
8663;SDS011;4369;47.842;13.096;2022-12-18T08:13:29;33.07;;;20.77;;
8663;SDS011;4369;47.842;13.096;2022-12-18T08:15:57;33.67;;;19.90;;
8663;SDS011;4369;47.842;13.096;2022-12-18T08:18:25;25.20;;;16.60;;
8663;SDS011;4369;47.842;13.096;2022-12-18T08:20:52;32.50;;;18.60;;
8663;SDS011;4369;47.842;13.096;2022-12-18T08:23:20;28.80;;;17.13;;
8663;SDS011;4369;47.842;13.096;2022-12-18T08:25:47;29.37;;;18.00;;
8663;SDS011;4369;47.842;13.096;2022-12-18T08:28:14;32.47;;;19.90;;
8663;SDS011;4369;47.842;13.096;2022-12-18T08:30:42;29.90;;;17.53;;
8663;SDS011;4369;47.842;13.096;2022-12-18T08:33:10;43.90;;;18.87;;
8663;SDS011;4369;47.842;13.096;2022-12-18T08:35:37;41.80;;;19.73;;
8663;SDS011;4369;47.842;13.096;2022-12-18T08:38:04;34.73;;;16.87;;
8663;SDS011;4369;47.842;13.096;2022-12-18T08:40:31;29.37;;;16.27;;
8663;SDS011;4369;47.842;13.096;2022-12-18T08:42:57;30.10;;;15.70;;
8663;SDS011;4369;47.842;13.096;2022-12-18T08:45:42;27.20;;;15.93;;
8663;SDS011;4369;47.842;13.096;2022-12-18T08:48:08;24.77;;;14.50;;
8663;SDS011;4369;47.842;13.096;2022-12-18T08:50:37;24.67;;;15.97;;
8663;SDS011;4369;47.842;13.096;2022-12-18T08:53:03;26.00;;;16.20;;
8663;SDS011;4369;47.842;13.096;2022-12-18T08:55:30;23.37;;;13.87;;
8663;SDS011;4369;47.842;13.096;2022-12-18T08:57:57;20.47;;;12.93;;
8663;SDS011;4369;47.842;13.096;2022-12-18T09:00:24;20.93;;;13.80;;
8663;SDS011;4369;47.842;13.096;2022-12-18T09:02:51;20.40;;;13.20;;
8663;SDS011;4369;47.842;13.096;2022-12-18T09:05:19;21.03;;;13.23;;
8663;SDS011;4369;47.842;13.096;2022-12-18T09:07:46;20.00;;;12.53;;
8663;SDS011;4369;47.842;13.096;2022-12-18T09:10:13;20.63;;;13.10;;
8663;SDS011;4369;47.842;13.096;2022-12-18T09:12:40;22.03;;;13.50;;
8663;SDS011;4369;47.842;13.096;2022-12-18T09:15:07;24.63;;;13.93;;
8663;SDS011;4369;47.842;13.096;2022-12-18T09:17:34;24.63;;;14.20;;
8663;SDS011;4369;47.842;13.096;2022-12-18T09:20:01;20.10;;;12.83;;
8663;SDS011;4369;47.842;13.096;2022-12-18T09:22:29;17.37;;;11.53;;
8663;SDS011;4369;47.842;13.096;2022-12-18T09:24:56;21.00;;;11.97;;
8663;SDS011;4369;47.842;13.096;2022-12-18T09:27:23;20.43;;;11.90;;
8663;SDS011;4369;47.842;13.096;2022-12-18T09:29:50;20.57;;;12.00;;
8663;SDS011;4369;47.842;13.096;2022-12-18T09:32:17;22.10;;;12.63;;
8663;SDS011;4369;47.842;13.096;2022-12-18T09:34:43;19.27;;;12.37;;
8663;SDS011;4369;47.842;13.096;2022-12-18T09:37:10;18.03;;;11.50;;
8663;SDS011;4369;47.842;13.096;2022-12-18T09:39:39;23.27;;;14.57;;
8663;SDS011;4369;47.842;13.096;2022-12-18T09:42:06;25.13;;;15.30;;
8663;SDS011;4369;47.842;13.096;2022-12-18T09:44:44;24.63;;;14.90;;
8663;SDS011;4369;47.842;13.096;2022-12-18T09:47:16;23.30;;;14.03;;
8663;SDS011;4369;47.842;13.096;2022-12-18T09:49:49;22.87;;;14.50;;
8663;SDS011;4369;47.842;13.096;2022-12-18T09:52:20;18.53;;;11.70;;
8663;SDS011;4369;47.842;13.096;2022-12-18T09:54:52;17.73;;;11.37;;
8663;SDS011;4369;47.842;13.096;2022-12-18T09:57:23;20.93;;;14.17;;
8663;SDS011;4369;47.842;13.096;2022-12-18T09:59:51;18.27;;;12.20;;
8663;SDS011;4369;47.842;13.096;2022-12-18T10:02:22;18.30;;;12.67;;
8663;SDS011;4369;47.842;13.096;2022-12-18T10:04:55;20.23;;;12.80;;
8663;SDS011;4369;47.842;13.096;2022-12-18T10:07:35;18.97;;;12.33;;
8663;SDS011;4369;47.842;13.096;2022-12-18T10:10:14;22.07;;;14.57;;
8663;SDS011;4369;47.842;13.096;2022-12-18T10:12:51;18.17;;;12.17;;
8663;SDS011;4369;47.842;13.096;2022-12-18T10:15:27;18.90;;;11.43;;
8663;SDS011;4369;47.842;13.096;2022-12-18T10:18:02;15.70;;;10.97;;
8663;SDS011;4369;47.842;13.096;2022-12-18T10:20:41;15.37;;;11.17;;
8663;SDS011;4369;47.842;13.096;2022-12-18T10:23:12;14.53;;;10.50;;
8663;SDS011;4369;47.842;13.096;2022-12-18T10:25:51;14.53;;;9.83;;
8663;SDS011;4369;47.842;13.096;2022-12-18T10:28:21;15.47;;;10.53;;
8663;SDS011;4369;47.842;13.096;2022-12-18T10:30:50;17.90;;;11.10;;
8663;SDS011;4369;47.842;13.096;2022-12-18T10:33:18;14.47;;;10.07;;
8663;SDS011;4369;47.842;13.096;2022-12-18T10:35:46;13.00;;;9.30;;
8663;SDS011;4369;47.842;13.096;2022-12-18T10:38:22;15.17;;;10.13;;
8663;SDS011;4369;47.842;13.096;2022-12-18T10:40:53;15.73;;;10.03;;
8663;SDS011;4369;47.842;13.096;2022-12-18T10:43:22;13.33;;;9.50;;
8663;SDS011;4369;47.842;13.096;2022-12-18T10:46:01;12.90;;;9.90;;
8663;SDS011;4369;47.842;13.096;2022-12-18T10:48:31;13.27;;;9.43;;
8663;SDS011;4369;47.842;13.096;2022-12-18T10:51:02;13.40;;;9.67;;
8663;SDS011;4369;47.842;13.096;2022-12-18T10:53:30;16.30;;;10.73;;
8663;SDS011;4369;47.842;13.096;2022-12-18T10:56:00;17.63;;;12.53;;
8663;SDS011;4369;47.842;13.096;2022-12-18T10:58:30;19.13;;;16.27;;
8663;SDS011;4369;47.842;13.096;2022-12-18T11:01:02;18.70;;;14.90;;
8663;SDS011;4369;47.842;13.096;2022-12-18T11:03:36;15.30;;;13.43;;
8663;SDS011;4369;47.842;13.096;2022-12-18T11:06:06;26.13;;;16.03;;
8663;SDS011;4369;47.842;13.096;2022-12-18T11:08:35;22.53;;;17.23;;
8663;SDS011;4369;47.842;13.096;2022-12-18T11:11:04;24.83;;;16.43;;
8663;SDS011;4369;47.842;13.096;2022-12-18T11:13:41;22.30;;;16.73;;
8663;SDS011;4369;47.842;13.096;2022-12-18T11:16:18;20.90;;;15.77;;
8663;SDS011;4369;47.842;13.096;2022-12-18T11:18:45;24.47;;;14.23;;
8663;SDS011;4369;47.842;13.096;2022-12-18T11:21:12;17.47;;;12.00;;
8663;SDS011;4369;47.842;13.096;2022-12-18T11:23:44;38.50;;;13.63;;
8663;SDS011;4369;47.842;13.096;2022-12-18T11:26:16;15.70;;;11.53;;
8663;SDS011;4369;47.842;13.096;2022-12-18T11:28:44;30.30;;;13.37;;
8663;SDS011;4369;47.842;13.096;2022-12-18T11:31:23;18.23;;;12.23;;
8663;SDS011;4369;47.842;13.096;2022-12-18T11:33:54;22.57;;;13.93;;
8663;SDS011;4369;47.842;13.096;2022-12-18T11:36:28;22.97;;;13.33;;
8663;SDS011;4369;47.842;13.096;2022-12-18T11:38:59;24.53;;;16.40;;
8663;SDS011;4369;47.842;13.096;2022-12-18T11:41:34;29.63;;;15.33;;
8663;SDS011;4369;47.842;13.096;2022-12-18T11:44:26;25.33;;;15.20;;
8663;SDS011;4369;47.842;13.096;2022-12-18T11:46:59;18.80;;;13.97;;
8663;SDS011;4369;47.842;13.096;2022-12-18T11:49:32;19.27;;;13.73;;
8663;SDS011;4369;47.842;13.096;2022-12-18T11:52:00;20.40;;;14.10;;
8663;SDS011;4369;47.842;13.096;2022-12-18T11:54:31;28.77;;;15.70;;
8663;SDS011;4369;47.842;13.096;2022-12-18T11:57:02;22.67;;;15.17;;
8663;SDS011;4369;47.842;13.096;2022-12-18T11:59:38;31.87;;;15.67;;
8663;SDS011;4369;47.842;13.096;2022-12-18T12:02:19;27.03;;;15.00;;
8663;SDS011;4369;47.842;13.096;2022-12-18T12:04:59;27.50;;;16.47;;
8663;SDS011;4369;47.842;13.096;2022-12-18T12:07:38;25.90;;;16.57;;
8663;SDS011;4369;47.842;13.096;2022-12-18T12:10:16;27.93;;;15.63;;
8663;SDS011;4369;47.842;13.096;2022-12-18T12:12:58;30.13;;;17.00;;
8663;SDS011;4369;47.842;13.096;2022-12-18T12:15:39;27.00;;;17.00;;
8663;SDS011;4369;47.842;13.096;2022-12-18T12:18:15;21.70;;;16.90;;
8663;SDS011;4369;47.842;13.096;2022-12-18T12:20:52;24.47;;;17.50;;
8663;SDS011;4369;47.842;13.096;2022-12-18T12:23:31;31.17;;;20.43;;
8663;SDS011;4369;47.842;13.096;2022-12-18T12:26:06;29.70;;;21.30;;
8663;SDS011;4369;47.842;13.096;2022-12-18T12:28:44;31.13;;;21.50;;
8663;SDS011;4369;47.842;13.096;2022-12-18T12:31:25;29.73;;;20.57;;
8663;SDS011;4369;47.842;13.096;2022-12-18T12:34:05;31.43;;;21.20;;
8663;SDS011;4369;47.842;13.096;2022-12-18T12:36:41;28.83;;;20.03;;
8663;SDS011;4369;47.842;13.096;2022-12-18T12:39:20;26.73;;;19.53;;
8663;SDS011;4369;47.842;13.096;2022-12-18T12:41:58;25.63;;;19.30;;
8663;SDS011;4369;47.842;13.096;2022-12-18T12:44:46;26.17;;;19.13;;
8663;SDS011;4369;47.842;13.096;2022-12-18T12:47:18;30.20;;;18.47;;
8663;SDS011;4369;47.842;13.096;2022-12-18T12:49:48;29.93;;;19.27;;
8663;SDS011;4369;47.842;13.096;2022-12-18T12:52:17;26.60;;;19.70;;
8663;SDS011;4369;47.842;13.096;2022-12-18T12:54:50;31.03;;;20.07;;
8663;SDS011;4369;47.842;13.096;2022-12-18T12:57:19;31.23;;;20.27;;
8663;SDS011;4369;47.842;13.096;2022-12-18T12:59:51;30.53;;;19.63;;
8663;SDS011;4369;47.842;13.096;2022-12-18T13:02:28;32.73;;;21.50;;
8663;SDS011;4369;47.842;13.096;2022-12-18T13:05:00;36.57;;;21.57;;
8663;SDS011;4369;47.842;13.096;2022-12-18T13:07:32;36.67;;;20.80;;
8663;SDS011;4369;47.842;13.096;2022-12-18T13:10:14;34.67;;;21.13;;
8663;SDS011;4369;47.842;13.096;2022-12-18T13:12:57;31.03;;;21.47;;
8663;SDS011;4369;47.842;13.096;2022-12-18T13:15:28;34.13;;;21.73;;
8663;SDS011;4369;47.842;13.096;2022-12-18T13:18:05;33.90;;;22.90;;
8663;SDS011;4369;47.842;13.096;2022-12-18T13:20:40;33.50;;;21.40;;
8663;SDS011;4369;47.842;13.096;2022-12-18T13:23:27;31.43;;;23.23;;
8663;SDS011;4369;47.842;13.096;2022-12-18T13:25:57;34.70;;;23.80;;
8663;SDS011;4369;47.842;13.096;2022-12-18T13:34:29;35.53;;;21.87;;
8663;SDS011;4369;47.842;13.096;2022-12-18T13:36:57;40.67;;;24.53;;
8663;SDS011;4369;47.842;13.096;2022-12-18T13:40:08;38.10;;;24.07;;
8663;SDS011;4369;47.842;13.096;2022-12-18T13:43:23;36.70;;;23.57;;
8663;SDS011;4369;47.842;13.096;2022-12-18T13:46:04;38.60;;;23.60;;
8663;SDS011;4369;47.842;13.096;2022-12-18T13:48:47;43.60;;;25.30;;
8663;SDS011;4369;47.842;13.096;2022-12-18T13:51:17;39.30;;;24.73;;
8663;SDS011;4369;47.842;13.096;2022-12-18T13:53:46;39.73;;;23.70;;
8663;SDS011;4369;47.842;13.096;2022-12-18T13:56:17;25.80;;;18.40;;
8663;SDS011;4369;47.842;13.096;2022-12-18T14:01:00;49.25;;;31.13;;
8663;SDS011;4369;47.842;13.096;2022-12-18T15:34:35;60.47;;;30.40;;
8663;SDS011;4369;47.842;13.096;2022-12-18T15:37:02;57.60;;;31.17;;
8663;SDS011;4369;47.842;13.096;2022-12-18T15:39:29;49.87;;;27.77;;
8663;SDS011;4369;47.842;13.096;2022-12-18T15:41:55;49.20;;;26.20;;
8663;SDS011;4369;47.842;13.096;2022-12-18T15:44:40;46.77;;;25.33;;
8663;SDS011;4369;47.842;13.096;2022-12-18T15:47:10;43.73;;;24.47;;
8663;SDS011;4369;47.842;13.096;2022-12-18T15:49:42;41.70;;;23.87;;
8663;SDS011;4369;47.842;13.096;2022-12-18T15:52:09;39.30;;;22.13;;
8663;SDS011;4369;47.842;13.096;2022-12-18T15:54:39;43.23;;;24.03;;
8663;SDS011;4369;47.842;13.096;2022-12-18T15:57:23;47.07;;;24.67;;
8663;SDS011;4369;47.842;13.096;2022-12-18T15:59:50;45.60;;;23.63;;
8663;SDS011;4369;47.842;13.096;2022-12-18T16:02:19;49.60;;;25.50;;
8663;SDS011;4369;47.842;13.096;2022-12-18T16:04:49;46.13;;;24.93;;
8663;SDS011;4369;47.842;13.096;2022-12-18T16:07:16;39.40;;;22.33;;
8663;SDS011;4369;47.842;13.096;2022-12-18T16:09:43;39.13;;;23.00;;
8663;SDS011;4369;47.842;13.096;2022-12-18T16:12:14;44.23;;;23.73;;
8663;SDS011;4369;47.842;13.096;2022-12-18T16:14:43;37.77;;;22.53;;
8663;SDS011;4369;47.842;13.096;2022-12-18T16:17:11;43.00;;;23.43;;
8663;SDS011;4369;47.842;13.096;2022-12-18T16:19:38;42.37;;;23.37;;
8663;SDS011;4369;47.842;13.096;2022-12-18T16:22:08;40.57;;;22.93;;
8663;SDS011;4369;47.842;13.096;2022-12-18T16:24:45;37.03;;;21.37;;
8663;SDS011;4369;47.842;13.096;2022-12-18T16:27:11;38.13;;;21.10;;
8663;SDS011;4369;47.842;13.096;2022-12-18T16:29:38;40.60;;;22.67;;
8663;SDS011;4369;47.842;13.096;2022-12-18T16:32:05;41.90;;;22.77;;
8663;SDS011;4369;47.842;13.096;2022-12-18T16:34:32;42.13;;;22.97;;
8663;SDS011;4369;47.842;13.096;2022-12-18T16:37:01;36.43;;;22.03;;